メインページ
METAR-TAF:

METAR-TAF

空港 :

ローマ・フィウミチーノ, イタリア

フィウミチーノ空港

緯度: 41-48N, 経度: 012-14E, 海抜: 2m

現時点の気象観測

当レポートは48分前の14:50(UTC)に作成
南西の風 11kt
気温 28°C
湿度 70%
気圧 1014 hPa
視程10km以上
高度2500ftの雲はほとんどない

METAR: LIRF 251450Z 23011KT 9999 FEW025 28/22 Q1014 NOSIG

時間: 17:38 (15:38 UTC)


TAF: 見つかりません

4,000以上の空港の気象観測と天気予報(METAR報とTAF報)

利用可能な観測所は地図上に黄色い丸と赤い丸で示す。

丸の上にカーソルを重ねると観測所名を参照できる。

次にクリックすると気象観測と天気予報を参照できる。

マップの切り替え:黒色「×」印の緑ボタンをクリックして拡大、「-」印の緑ボタンをクリックして縮小、緑色の三角印をクリックして隣りの地図に切り替え


METAR-TAF: